createdAt,value
2022-09-12T00:00:46.912Z,100003.75
2022-09-12T00:03:14.638Z,100006.78
2022-09-12T00:05:43.168Z,100013.00
2022-09-12T00:08:11.305Z,100001.06
2022-09-12T00:10:40.150Z,100005.69
2022-09-12T00:13:09.882Z,100009.34
2022-09-12T00:15:40.196Z,99987.75
2022-09-12T00:18:09.293Z,99994.84
2022-09-12T00:20:36.850Z,99993.13
2022-09-12T00:23:04.527Z,99993.13
2022-09-12T00:25:32.008Z,99985.94
2022-09-12T00:27:59.509Z,99985.38
2022-09-12T00:30:28.485Z,99971.59
2022-09-12T00:32:56.022Z,99978.06
2022-09-12T00:35:23.543Z,99975.69
2022-09-12T00:37:53.478Z,99970.44
2022-09-12T00:40:23.061Z,99969.66
2022-09-12T00:42:50.555Z,99962.25
2022-09-12T00:45:28.213Z,99964.59
2022-09-12T00:47:59.798Z,99961.59
2022-09-12T00:50:27.733Z,99952.84
2022-09-12T00:52:58.855Z,99954.81
2022-09-12T00:55:29.497Z,99950.72
2022-09-12T00:58:00.344Z,99945.22
2022-09-12T01:00:29.375Z,99953.72
2022-09-12T01:03:02.957Z,99939.97
2022-09-12T01:05:35.206Z,99943.63
2022-09-12T01:08:04.544Z,99952.88
2022-09-12T01:10:34.029Z,99947.50
2022-09-12T01:13:01.874Z,99953.53
2022-09-12T01:15:29.399Z,99936.03
2022-09-12T01:18:11.032Z,99943.00
2022-09-12T01:20:55.806Z,99942.56
2022-09-12T01:24:09.028Z,99949.03
2022-09-12T01:26:57.474Z,99953.19
2022-09-12T01:29:42.033Z,99943.88
2022-09-12T01:32:20.776Z,99944.72
2022-09-12T01:34:53.179Z,99944.84
2022-09-12T01:37:33.243Z,99945.03
2022-09-12T01:40:05.805Z,99946.53
2022-09-12T01:42:41.001Z,99942.47
2022-09-12T01:45:15.949Z,99939.91
2022-09-12T01:47:49.943Z,99932.91
2022-09-12T01:50:20.420Z,99937.63
2022-09-12T01:52:52.749Z,99938.28
2022-09-12T01:55:25.901Z,99943.53
2022-09-12T01:57:58.898Z,99932.03
2022-09-12T02:00:27.181Z,99923.88
2022-09-12T02:03:02.808Z,99931.19
2022-09-12T02:05:34.414Z,99930.72
2022-09-12T02:08:08.021Z,99930.13
2022-09-12T02:10:42.635Z,99916.34
2022-09-12T02:13:16.530Z,99923.88
2022-09-12T02:15:49.070Z,99916.53
2022-09-12T02:18:20.237Z,99917.72
2022-09-12T02:20:49.929Z,99922.56
2022-09-12T02:23:21.970Z,99920.44
2022-09-12T02:25:53.283Z,99923.41
2022-09-12T02:28:25.913Z,99928.59
2022-09-12T02:31:00.605Z,99922.69
2022-09-12T02:33:39.106Z,99924.59
2022-09-12T02:36:21.875Z,99911.81
2022-09-12T02:38:49.785Z,99917.81
2022-09-12T02:41:21.333Z,99919.00
2022-09-12T02:43:51.319Z,99925.47
2022-09-12T02:46:23.187Z,99919.66
2022-09-12T02:48:52.060Z,99920.19
2022-09-12T02:51:23.486Z,99910.84
2022-09-12T02:53:51.619Z,99906.41
2022-09-12T02:56:24.641Z,99902.69
2022-09-12T02:58:53.065Z,99893.56
2022-09-12T03:01:34.887Z,99896.34
2022-09-12T03:04:22.121Z,99893.34
2022-09-12T03:06:59.425Z,99888.06
2022-09-12T03:09:37.485Z,99895.94
2022-09-12T03:12:18.099Z,99886.34
2022-09-12T03:15:03.693Z,99887.44
2022-09-12T03:17:42.222Z,99882.59
2022-09-12T03:20:16.813Z,99881.94
2022-09-12T03:22:53.913Z,99884.72
2022-09-12T03:25:25.962Z,99888.81
2022-09-12T03:27:59.586Z,99887.56
2022-09-12T03:30:27.671Z,99885.81
2022-09-12T03:32:56.154Z,99890.84
2022-09-12T03:35:25.894Z,99890.31
2022-09-12T03:37:54.137Z,99884.31
2022-09-12T03:40:21.986Z,99888.63
2022-09-12T03:42:49.600Z,99881.09
2022-09-12T03:45:18.278Z,99886.66
2022-09-12T03:47:45.792Z,99882.59
2022-09-12T03:50:13.311Z,99885.28
2022-09-12T03:52:42.129Z,99891.19
2022-09-12T03:55:10.060Z,99887.00
2022-09-12T03:57:37.629Z,99882.59
2022-09-12T04:00:06.850Z,99889.91
2022-09-12T04:02:34.419Z,99886.69
2022-09-12T04:05:02.132Z,99884.72
2022-09-12T04:07:30.057Z,99883.03
2022-09-12T04:09:58.957Z,99887.22
2022-09-12T04:12:26.459Z,99883.25
2022-09-12T04:14:54.009Z,99881.09
2022-09-12T04:17:21.520Z,99877.75
2022-09-12T04:19:49.047Z,99885.38
2022-09-12T04:22:16.521Z,99884.22
2022-09-12T04:24:44.036Z,99885.91
2022-09-12T04:27:13.016Z,99876.59
2022-09-12T04:29:40.853Z,99882.69
2022-09-12T04:32:08.367Z,99877.31
2022-09-12T04:34:35.950Z,99865.81
2022-09-12T04:37:03.481Z,99876.69
2022-09-12T04:39:31.329Z,99869.28
2022-09-12T04:41:58.833Z,99869.78
2022-09-12T04:44:27.696Z,99870.56
2022-09-12T04:46:55.180Z,99863.91
2022-09-12T04:49:22.697Z,99868.91
2022-09-12T04:51:50.484Z,99860.97
2022-09-12T04:54:19.824Z,99861.28
2022-09-12T04:56:49.663Z,99861.19
2022-09-12T04:59:19.718Z,99861.06
2022-09-12T05:01:48.898Z,99859.88
2022-09-12T05:04:16.903Z,99857.16
2022-09-12T05:06:46.876Z,99857.16
2022-09-12T05:09:15.785Z,99852.34
2022-09-12T05:14:33.943Z,99855.25
2022-09-12T05:17:03.526Z,99856.28
2022-09-12T05:19:32.288Z,99860.81
2022-09-12T05:22:00.473Z,99853.28
2022-09-12T05:24:28.296Z,99850.25
2022-09-12T05:26:56.139Z,99847.47
2022-09-12T05:29:25.022Z,99840.78
2022-09-12T05:31:53.354Z,99843.81
2022-09-12T05:34:23.263Z,99845.53
2022-09-12T05:36:50.843Z,99848.22
2022-09-12T05:39:18.520Z,99840.47
2022-09-12T05:41:46.044Z,99835.97
2022-09-12T05:44:15.004Z,99831.38
2022-09-12T05:46:45.081Z,99840.66
2022-09-12T05:49:14.428Z,99829.34
2022-09-12T05:51:46.189Z,99835.47
2022-09-12T05:54:15.980Z,99840.94
2022-09-12T05:56:44.970Z,99838.16
2022-09-12T05:59:14.516Z,99841.91
2022-09-12T06:01:43.078Z,99836.59
2022-09-12T06:04:11.142Z,99844.56
2022-09-12T06:06:42.421Z,99849.66
2022-09-12T06:09:12.007Z,99853.78
2022-09-12T06:11:41.758Z,99847.59
2022-09-12T06:14:11.287Z,99844.09
2022-09-12T06:16:40.104Z,99850.00
2022-09-12T06:19:09.423Z,99845.75
2022-09-12T06:21:37.718Z,99844.06
2022-09-12T06:24:05.666Z,99845.91
2022-09-12T06:26:34.630Z,99847.44
2022-09-12T06:29:03.169Z,99845.59
2022-09-12T06:31:33.079Z,99845.97
2022-09-12T06:34:02.292Z,99850.78
2022-09-12T06:36:31.777Z,99846.88
2022-09-12T06:39:00.921Z,99851.00
2022-09-12T06:41:29.411Z,99853.44
2022-09-12T06:43:59.584Z,99852.94
2022-09-12T06:46:27.908Z,99854.81
2022-09-12T06:48:59.394Z,99847.22
2022-09-12T06:51:27.745Z,99852.03
2022-09-12T06:53:56.625Z,99846.25
2022-09-12T06:56:28.813Z,99835.72
2022-09-12T06:58:59.400Z,99837.56
2022-09-12T07:01:28.838Z,99843.09
2022-09-12T07:03:58.783Z,99846.47
2022-09-12T07:06:31.608Z,99853.72
2022-09-12T07:09:00.184Z,99851.75
2022-09-12T07:11:30.418Z,99848.22
2022-09-12T07:14:00.762Z,99849.53
2022-09-12T07:16:28.739Z,99855.19
2022-09-12T07:18:58.294Z,99847.44
2022-09-12T07:21:26.174Z,99852.47
2022-09-12T07:23:55.227Z,99860.53
2022-09-12T07:26:22.795Z,99858.16
2022-09-12T07:28:53.939Z,99855.97
2022-09-12T07:31:24.732Z,99861.09
2022-09-12T07:33:54.795Z,99862.16
2022-09-12T07:36:24.545Z,99857.50
2022-09-12T07:38:57.417Z,99856.25
2022-09-12T07:41:27.455Z,99856.47
2022-09-12T07:43:56.798Z,99862.34
2022-09-12T07:46:26.532Z,99858.50
2022-09-12T07:48:55.602Z,99851.34
2022-09-12T07:51:24.702Z,99850.84
2022-09-12T07:53:52.628Z,99842.72
2022-09-12T07:56:21.086Z,99836.81
2022-09-12T07:58:48.630Z,99839.41
2022-09-12T08:01:18.400Z,99839.84
2022-09-12T08:03:49.042Z,99846.97
2022-09-12T08:06:19.920Z,99855.34
2022-09-12T08:08:48.205Z,99847.97
2022-09-12T08:11:17.791Z,99848.63
2022-09-12T08:13:46.982Z,99843.84
2022-09-12T08:16:18.737Z,99852.56
2022-09-12T08:18:48.274Z,99854.47
2022-09-12T08:21:18.216Z,99854.03
2022-09-12T08:23:46.502Z,99860.91
2022-09-12T08:26:14.357Z,99865.00
2022-09-12T08:28:46.572Z,99861.75
2022-09-12T08:31:16.300Z,99865.75
2022-09-12T08:33:43.882Z,99865.34
2022-09-12T08:36:14.981Z,99866.38
2022-09-12T08:38:44.490Z,99868.94
2022-09-12T08:41:22.733Z,99857.34
2022-09-12T08:44:06.983Z,99861.63
2022-09-12T08:46:39.569Z,99853.22
2022-09-12T08:49:11.810Z,99857.81
2022-09-12T08:51:41.583Z,99849.66
2022-09-12T08:54:20.313Z,99851.13
2022-09-12T08:56:49.097Z,99855.91
2022-09-12T08:59:17.164Z,99854.97
2022-09-12T09:01:46.219Z,99849.59
2022-09-12T09:04:29.966Z,99850.38
2022-09-12T09:07:16.125Z,99852.63
2022-09-12T09:09:59.113Z,99843.53
2022-09-12T09:12:37.021Z,99841.84
2022-09-12T09:15:21.372Z,99839.00
2022-09-12T09:17:51.756Z,99844.16
2022-09-12T09:20:28.802Z,99842.72
2022-09-12T09:23:02.933Z,99842.00
2022-09-12T09:25:41.899Z,99843.59
2022-09-12T09:28:17.651Z,99844.75
2022-09-12T09:30:45.932Z,99846.88
2022-09-12T09:33:22.287Z,99852.47
2022-09-12T09:35:56.483Z,99854.59
2022-09-12T09:38:34.793Z,99854.69
2022-09-12T09:41:14.803Z,99847.03
2022-09-12T09:43:42.358Z,99847.13
2022-09-12T09:46:10.748Z,99842.06
2022-09-12T09:48:41.997Z,99841.03
2022-09-12T09:51:10.316Z,99838.63
2022-09-12T09:53:44.342Z,99833.78
2022-09-12T09:56:23.153Z,99835.63
2022-09-12T09:58:50.884Z,99830.69
2022-09-12T10:01:19.911Z,99825.13
2022-09-12T10:03:52.709Z,99817.97
2022-09-12T10:06:32.289Z,99820.56
2022-09-12T10:09:09.475Z,99815.41
2022-09-12T10:11:41.517Z,99819.28
2022-09-12T10:14:38.369Z,99822.44
2022-09-12T10:17:25.371Z,99813.81
2022-09-12T10:20:04.855Z,99812.38
2022-09-12T10:22:40.963Z,99806.00
2022-09-12T10:25:13.846Z,99806.25
2022-09-12T10:27:42.931Z,99813.81
2022-09-12T10:30:19.102Z,99806.41
2022-09-12T10:32:50.523Z,99807.97
2022-09-12T10:35:20.904Z,99803.34
2022-09-12T10:37:55.323Z,99801.88
2022-09-12T10:40:27.405Z,99795.94
2022-09-12T10:42:57.237Z,99795.03
2022-09-12T10:45:28.926Z,99787.41
2022-09-12T10:47:59.111Z,99791.88
2022-09-12T10:50:31.013Z,99788.88
2022-09-12T10:53:17.695Z,99793.28
2022-09-12T10:56:02.825Z,99785.47
2022-09-12T10:58:40.498Z,99782.94
2022-09-12T11:01:16.491Z,99774.78
2022-09-12T11:04:10.854Z,99776.00
2022-09-12T11:06:47.145Z,99765.06
2022-09-12T11:09:22.800Z,99768.28
2022-09-12T11:12:02.374Z,99769.84
2022-09-12T11:14:46.735Z,99760.59
2022-09-12T11:17:26.308Z,99760.81
2022-09-12T11:20:09.300Z,99763.81
2022-09-12T11:22:52.346Z,99759.28
2022-09-12T11:25:29.821Z,99752.59
2022-09-12T11:28:22.679Z,99751.84
2022-09-12T11:31:09.402Z,99747.25
2022-09-12T11:33:43.346Z,99746.16
2022-09-12T11:36:28.932Z,99743.88
2022-09-12T11:39:04.243Z,99743.06
2022-09-12T11:41:35.666Z,99734.03
2022-09-12T11:44:16.279Z,99745.53
2022-09-12T11:46:48.752Z,99735.16
2022-09-12T11:49:26.942Z,99732.78
2022-09-12T11:51:58.862Z,99727.28
2022-09-12T11:54:33.621Z,99730.47
2022-09-12T11:57:12.281Z,99726.22
2022-09-12T11:59:47.093Z,99728.78
2022-09-12T12:02:21.022Z,99730.47
2022-09-12T12:05:04.222Z,99717.69
2022-09-12T12:07:45.369Z,99721.84
2022-09-12T12:10:26.190Z,99716.56
2022-09-12T12:12:56.034Z,99719.28
2022-09-12T12:15:26.527Z,99703.16
2022-09-12T12:18:06.067Z,99709.31
2022-09-12T12:20:33.842Z,99708.13
2022-09-12T12:23:01.889Z,99707.78
2022-09-12T12:25:52.861Z,99711.03
2022-09-12T12:29:00.133Z,99706.09
2022-09-12T12:31:29.043Z,99702.38
2022-09-12T12:34:06.323Z,99702.94
2022-09-12T12:36:42.984Z,99701.66
2022-09-12T12:39:44.082Z,99700.66
2022-09-12T12:42:14.844Z,99701.00
2022-09-12T12:44:50.094Z,99690.13
2022-09-12T12:47:23.158Z,99689.44
2022-09-12T12:49:52.924Z,99685.19
2022-09-12T12:52:21.113Z,99681.63
2022-09-12T12:54:55.113Z,99678.22
2022-09-12T12:57:56.877Z,99671.06
2022-09-12T13:00:34.255Z,99665.97
2022-09-12T13:03:11.553Z,99655.91
2022-09-12T13:05:41.501Z,99654.69
2022-09-12T13:08:12.801Z,99658.63
2022-09-12T13:10:49.646Z,99649.75
2022-09-12T13:13:25.790Z,99647.19
2022-09-12T13:15:53.776Z,99651.78
2022-09-12T13:18:27.789Z,99645.00
2022-09-12T13:21:07.055Z,99646.50
2022-09-12T13:23:35.163Z,99635.59
2022-09-12T13:26:03.483Z,99636.25
2022-09-12T13:28:32.432Z,99635.63
2022-09-12T13:31:03.869Z,99631.13
2022-09-12T13:33:37.500Z,99628.72
2022-09-12T13:36:32.243Z,99628.78
2022-09-12T13:39:13.346Z,99628.44
2022-09-12T13:41:56.071Z,99629.28
2022-09-12T13:44:25.438Z,99621.25
2022-09-12T13:46:53.785Z,99618.63
2022-09-12T13:49:31.814Z,99615.53
2022-09-12T13:52:03.035Z,99615.13
2022-09-12T13:54:31.957Z,99616.75
2022-09-12T13:56:59.745Z,99620.50
2022-09-12T13:59:27.378Z,99622.00
2022-09-12T14:01:55.069Z,99610.25
2022-09-12T14:04:55.463Z,99617.75
2022-09-12T14:07:25.901Z,99610.16
2022-09-12T14:09:56.130Z,99612.63
2022-09-12T14:12:26.915Z,99605.50
2022-09-12T14:14:54.877Z,99605.44
2022-09-12T14:17:29.330Z,99614.16
2022-09-12T14:20:01.985Z,99607.97
2022-09-12T14:22:30.620Z,99603.56
2022-09-12T14:24:59.804Z,99608.50
2022-09-12T14:27:30.102Z,99601.72
2022-09-12T14:30:03.116Z,99599.38
2022-09-12T14:32:30.762Z,99596.63
2022-09-12T14:35:24.076Z,99584.59
2022-09-12T14:37:52.874Z,99589.19
2022-09-12T14:40:22.573Z,99586.97
2022-09-12T14:42:52.561Z,99579.78
2022-09-12T14:45:28.635Z,99575.34
2022-09-12T14:47:56.687Z,99573.84
2022-09-12T14:50:29.029Z,99576.41
2022-09-12T14:53:07.827Z,99570.50
2022-09-12T14:55:43.180Z,99557.84
2022-09-12T14:58:23.415Z,99557.91
2022-09-12T15:01:01.667Z,99562.00
2022-09-12T15:03:33.008Z,99555.19
2022-09-12T15:06:03.934Z,99551.16
2022-09-12T15:08:32.786Z,99546.97
2022-09-12T15:11:00.663Z,99546.97
2022-09-12T15:13:32.035Z,99541.53
2022-09-12T15:16:00.768Z,99552.25
2022-09-12T15:18:29.982Z,99547.34
2022-09-12T15:21:02.144Z,99547.19
2022-09-12T15:23:39.993Z,99542.66
2022-09-12T15:26:08.819Z,99535.75
2022-09-12T15:28:36.371Z,99544.41
2022-09-12T15:31:08.257Z,99539.38
2022-09-12T15:33:35.852Z,99548.38
2022-09-12T15:36:03.749Z,99546.66
2022-09-12T15:38:31.838Z,99541.47
2022-09-12T15:41:00.672Z,99539.47
2022-09-12T15:43:28.267Z,99535.75
2022-09-12T15:45:55.860Z,99525.16
2022-09-12T15:48:23.424Z,99528.28
2022-09-12T15:50:50.955Z,99528.28
2022-09-12T15:53:18.714Z,99530.53
2022-09-12T15:55:46.440Z,99524.25
2022-09-12T15:58:15.406Z,99519.81
2022-09-12T16:00:42.876Z,99521.50
2022-09-12T16:03:21.344Z,99525.94
2022-09-12T16:05:48.843Z,99517.41
2022-09-12T16:08:16.394Z,99513.72
2022-09-12T16:10:44.333Z,99515.91
2022-09-12T16:13:11.923Z,99511.16
2022-09-12T16:15:40.833Z,99501.25
2022-09-12T16:18:08.457Z,99502.28
2022-09-12T16:20:36.025Z,99501.09
2022-09-12T16:23:03.569Z,99497.53
2022-09-12T16:25:31.049Z,99489.88
2022-09-12T16:27:58.917Z,99494.53
2022-09-12T16:30:26.472Z,99485.16
2022-09-12T16:32:55.335Z,99491.13
2022-09-12T16:35:22.860Z,99492.19
2022-09-12T16:37:50.546Z,99478.38
2022-09-12T16:40:19.348Z,99469.22
2022-09-12T16:42:47.272Z,99467.53
2022-09-12T16:45:14.845Z,99467.22
2022-09-12T16:47:42.476Z,99471.84
2022-09-12T16:50:11.410Z,99471.28
2022-09-12T16:52:38.919Z,99477.94
2022-09-12T16:55:07.483Z,99469.75
2022-09-12T16:57:35.031Z,99462.63
2022-09-12T17:00:03.121Z,99455.28
2022-09-12T17:02:30.646Z,99457.00
2022-09-12T17:04:58.198Z,99465.84
2022-09-12T17:07:27.065Z,99454.31
2022-09-12T17:09:54.558Z,99459.75
2022-09-12T17:12:22.064Z,99460.75
2022-09-12T17:14:49.561Z,99450.56
2022-09-12T17:17:17.086Z,99450.38
2022-09-12T17:19:44.600Z,99449.72
2022-09-12T17:22:12.103Z,99448.50
2022-09-12T17:24:41.766Z,99451.06
2022-09-12T17:27:09.485Z,99438.81
2022-09-12T17:29:38.441Z,99448.00
2022-09-12T17:32:06.153Z,99443.25
2022-09-12T17:34:33.638Z,99445.81
2022-09-12T17:37:01.135Z,99437.44
2022-09-12T17:39:28.825Z,99433.50
2022-09-12T17:41:58.832Z,99442.81
2022-09-12T17:44:29.108Z,99445.53
2022-09-12T17:46:56.611Z,99440.44
2022-09-12T17:49:24.205Z,99432.97
2022-09-12T17:51:52.073Z,99438.72
2022-09-12T17:54:20.765Z,99438.88
2022-09-12T17:56:51.185Z,99439.03
2022-09-12T17:59:21.757Z,99432.72
2022-09-12T18:02:07.032Z,99444.94
2022-09-12T18:04:34.642Z,99436.44
2022-09-12T18:07:02.394Z,99432.34
2022-09-12T18:09:30.566Z,99434.34
2022-09-12T18:11:58.409Z,99433.69
2022-09-12T18:14:28.981Z,99430.97
2022-09-12T18:16:57.505Z,99428.25
2022-09-12T18:19:25.514Z,99423.66
2022-09-12T18:21:53.036Z,99416.34
2022-09-12T18:24:20.844Z,99410.72
2022-09-12T18:26:48.738Z,99411.84
2022-09-12T18:29:17.186Z,99410.66
2022-09-12T18:31:46.953Z,99410.50
2022-09-12T18:34:15.215Z,99423.06
2022-09-12T18:36:44.310Z,99423.41
2022-09-12T18:39:12.545Z,99429.72
2022-09-12T18:41:40.675Z,99433.59
2022-09-12T18:44:08.669Z,99430.16
2022-09-12T18:46:36.447Z,99434.38
2022-09-12T18:49:05.967Z,99421.44
2022-09-12T18:51:35.879Z,99414.53
2022-09-12T18:54:06.178Z,99413.13
2022-09-12T18:56:35.860Z,99400.66
2022-09-12T18:59:05.315Z,99409.38
2022-09-12T19:01:35.071Z,99425.94
2022-09-12T19:04:04.600Z,99421.88
2022-09-12T19:06:35.211Z,99421.50
2022-09-12T19:09:07.367Z,99419.50
2022-09-12T19:11:37.074Z,99406.28
2022-09-12T19:14:05.281Z,99404.16
2022-09-12T19:16:33.297Z,99413.31
2022-09-12T19:19:02.429Z,99410.59
2022-09-12T19:21:32.071Z,99400.13
2022-09-12T19:24:02.470Z,99391.56
2022-09-12T19:26:30.411Z,99391.88
2022-09-12T19:28:57.978Z,99386.81
2022-09-12T19:31:26.286Z,99388.97
2022-09-12T19:33:53.928Z,99385.16
2022-09-12T19:36:43.830Z,99386.19
2022-09-12T19:39:11.661Z,99377.03
2022-09-12T19:41:39.167Z,99360.34
2022-09-12T19:44:06.705Z,99368.97
2022-09-12T19:46:34.244Z,99375.25
2022-09-12T19:49:01.932Z,99378.47
2022-09-12T19:51:29.452Z,99388.81
2022-09-12T19:53:57.009Z,99389.03
2022-09-12T19:56:25.845Z,99387.78
2022-09-12T19:58:56.681Z,99383.19
2022-09-12T20:01:28.050Z,99385.25
2022-09-12T20:03:56.230Z,99389.72
2022-09-12T20:06:24.003Z,99388.69
2022-09-12T20:08:51.502Z,99382.22
2022-09-12T20:11:21.300Z,99379.91
2022-09-12T20:13:50.381Z,99381.69
2022-09-12T20:16:22.034Z,99382.91
2022-09-12T20:18:54.382Z,99381.03
2022-09-12T20:21:24.962Z,99379.47
2022-09-12T20:23:52.541Z,99374.34
2022-09-12T20:26:20.709Z,99378.19
2022-09-12T20:28:49.916Z,99371.72
2022-09-12T20:31:17.848Z,99379.47
2022-09-12T20:33:49.841Z,99374.94
2022-09-12T20:36:21.411Z,99370.75
2022-09-12T20:38:50.495Z,99377.00
2022-09-12T20:41:19.950Z,99370.88
2022-09-12T20:43:52.007Z,99363.38
2022-09-12T20:46:22.146Z,99360.50
2022-09-12T20:48:50.688Z,99360.75
2022-09-12T20:51:18.654Z,99355.09
2022-09-12T20:53:46.250Z,99352.63
2022-09-12T20:56:14.839Z,99354.91
2022-09-12T20:58:44.509Z,99351.53
2022-09-12T21:01:16.030Z,99354.25
2022-09-12T21:03:45.198Z,99346.47
2022-09-12T21:06:14.277Z,99335.44
2022-09-12T21:08:41.774Z,99323.69
2022-09-12T21:11:10.094Z,99325.78
2022-09-12T21:13:37.939Z,99316.28
2022-09-12T21:16:07.318Z,99318.38
2022-09-12T21:18:37.166Z,99312.94
2022-09-12T21:21:05.930Z,99303.34
2022-09-12T21:23:34.386Z,99284.91
2022-09-12T21:26:02.831Z,99288.06
2022-09-12T21:28:30.957Z,99284.50
2022-09-12T21:30:58.628Z,99293.63
2022-09-12T21:33:26.166Z,99288.84
2022-09-12T21:35:55.159Z,99291.34
2022-09-12T21:38:22.633Z,99290.72
2022-09-12T21:40:50.121Z,99309.22
2022-09-12T21:43:17.650Z,99299.03
2022-09-12T21:45:45.138Z,99290.50
2022-09-12T21:48:12.764Z,99290.78
2022-09-12T21:50:40.236Z,99293.88
2022-09-12T21:53:09.185Z,99295.19
2022-09-12T21:55:36.676Z,99311.38
2022-09-12T21:58:04.173Z,99299.38
2022-09-12T22:00:31.669Z,99303.00
2022-09-12T22:02:59.187Z,99306.56
2022-09-12T22:05:29.770Z,99306.81
2022-09-12T22:07:57.258Z,99310.75
2022-09-12T22:10:26.257Z,99330.41
2022-09-12T22:12:53.754Z,99320.59
2022-09-12T22:15:40.022Z,99321.03
2022-09-12T22:18:08.295Z,99323.19
2022-09-12T22:20:35.830Z,99321.72
2022-09-12T22:23:24.591Z,99310.69
2022-09-12T22:25:56.651Z,99312.22
2022-09-12T22:28:25.013Z,99317.34
2022-09-12T22:30:54.326Z,99316.16
2022-09-12T22:33:21.994Z,99317.09
2022-09-12T22:35:49.503Z,99322.72
2022-09-12T22:38:17.074Z,99323.00
2022-09-12T22:40:44.577Z,99334.19
2022-09-12T22:43:13.651Z,99331.63
2022-09-12T22:45:42.001Z,99334.59
2022-09-12T22:48:09.603Z,99322.22
2022-09-12T22:50:37.332Z,99312.38
2022-09-12T22:53:05.073Z,99308.13
2022-09-12T22:55:32.669Z,99303.44
2022-09-12T22:58:00.149Z,99306.59
2022-09-12T23:00:29.695Z,99311.13
2022-09-12T23:02:58.245Z,99311.72
2022-09-12T23:05:25.933Z,99314.09
2022-09-12T23:07:54.085Z,99319.75
2022-09-12T23:10:21.627Z,99311.66
2022-09-12T23:12:49.701Z,99327.31
2022-09-12T23:15:17.264Z,99324.16
2022-09-12T23:17:46.107Z,99321.00
2022-09-12T23:20:13.768Z,99324.50
2022-09-12T23:22:41.327Z,99320.47
2022-09-12T23:25:09.541Z,99328.91
2022-09-12T23:27:37.081Z,99333.00
2022-09-12T23:30:05.873Z,99327.91
2022-09-12T23:32:33.513Z,99327.69
2022-09-12T23:35:03.057Z,99333.31
2022-09-12T23:37:30.841Z,99317.72
2022-09-12T23:39:58.469Z,99316.00
2022-09-12T23:42:26.012Z,99309.41
2022-09-12T23:44:53.742Z,99308.13
2022-09-12T23:47:21.246Z,99307.56
2022-09-12T23:49:48.814Z,99310.59
2022-09-12T23:52:17.685Z,99303.13
2022-09-12T23:54:45.188Z,99314.69
2022-09-12T23:57:12.688Z,99307.72
2022-09-12T23:59:40.191Z,99309.66
